createdAt,value
2019-05-26T00:00:18.082Z,100076.80
2019-05-26T00:02:46.211Z,100079.44
2019-05-26T00:05:14.682Z,100075.89
2019-05-26T00:07:43.123Z,100077.30
2019-05-26T00:10:13.566Z,100078.22
2019-05-26T00:12:42.688Z,100079.94
2019-05-26T00:15:11.022Z,100085.03
2019-05-26T00:17:39.084Z,100087.25
2019-05-26T00:20:07.530Z,100084.38
2019-05-26T00:22:35.559Z,100084.37
2019-05-26T00:25:03.855Z,100076.27
2019-05-26T00:27:32.071Z,100078.27
2019-05-26T00:30:00.314Z,100078.05
2019-05-26T00:32:28.377Z,100078.03
2019-05-26T00:34:56.972Z,100076.58
2019-05-26T00:37:25.152Z,100076.98
2019-05-26T00:39:53.182Z,100072.59
2019-05-26T00:42:21.140Z,100083.88
2019-05-26T00:44:49.566Z,100080.63
2019-05-26T00:47:17.890Z,100081.31
2019-05-26T00:49:46.285Z,100080.91
2019-05-26T00:52:16.129Z,100076.81
2019-05-26T00:54:44.233Z,100076.11
2019-05-26T00:57:12.219Z,100072.36
2019-05-26T00:59:40.304Z,100064.30
2019-05-26T01:02:08.282Z,100065.83
2019-05-26T01:04:36.415Z,100059.95
2019-05-26T01:07:04.388Z,100061.95
2019-05-26T01:09:32.661Z,100062.86
2019-05-26T01:12:00.632Z,100067.09
2019-05-26T01:14:28.768Z,100067.00
2019-05-26T01:16:57.866Z,100061.89
2019-05-26T01:19:26.126Z,100058.34
2019-05-26T01:21:56.348Z,100060.87
2019-05-26T01:24:24.445Z,100055.16
2019-05-26T01:26:52.467Z,100056.55
2019-05-26T01:29:20.928Z,100057.16
2019-05-26T01:31:49.021Z,100057.03
2019-05-26T01:34:17.097Z,100064.84
2019-05-26T01:36:45.507Z,100056.18
2019-05-26T01:39:13.580Z,100063.08
2019-05-26T01:41:42.015Z,100063.17
2019-05-26T01:44:09.983Z,100061.62
2019-05-26T01:46:38.442Z,100067.46
2019-05-26T01:49:06.441Z,100071.62
2019-05-26T01:51:34.517Z,100073.44
2019-05-26T01:54:03.406Z,100076.08
2019-05-26T01:56:31.535Z,100073.95
2019-05-26T01:58:59.921Z,100079.92
2019-05-26T02:01:28.345Z,100077.29
2019-05-26T02:03:56.427Z,100076.03
2019-05-26T02:06:24.768Z,100075.90
2019-05-26T02:08:53.089Z,100076.09
2019-05-26T02:11:22.699Z,100074.95
2019-05-26T02:13:50.713Z,100078.09
2019-05-26T02:16:18.869Z,100074.23
2019-05-26T02:18:46.990Z,100072.27
2019-05-26T02:21:15.120Z,100071.14
2019-05-26T02:23:43.414Z,100072.97
2019-05-26T02:26:11.539Z,100078.55
2019-05-26T02:28:39.859Z,100072.66
2019-05-26T02:31:08.600Z,100069.89
2019-05-26T02:33:36.786Z,100070.59
2019-05-26T02:36:06.281Z,100072.11
2019-05-26T02:38:34.425Z,100072.61
2019-05-26T02:41:02.748Z,100071.50
2019-05-26T02:43:31.040Z,100073.69
2019-05-26T02:45:59.219Z,100069.73
2019-05-26T02:48:27.270Z,100065.98
2019-05-26T02:50:55.603Z,100070.63
2019-05-26T02:53:24.780Z,100072.00
2019-05-26T02:55:53.135Z,100076.97
2019-05-26T02:58:21.143Z,100073.38
2019-05-26T03:00:49.292Z,100072.26
2019-05-26T03:03:17.288Z,100074.59
2019-05-26T03:05:45.887Z,100073.77
2019-05-26T03:08:15.170Z,100073.97
2019-05-26T03:10:44.343Z,100079.09
2019-05-26T03:13:16.855Z,100081.81
2019-05-26T03:15:47.625Z,100082.48
2019-05-26T03:18:17.191Z,100080.36
2019-05-26T03:20:45.588Z,100077.11
2019-05-26T03:23:15.368Z,100077.30
2019-05-26T03:25:43.461Z,100076.55
2019-05-26T03:28:13.051Z,100084.52
2019-05-26T03:30:42.058Z,100081.75
2019-05-26T03:33:10.561Z,100082.25
2019-05-26T03:35:38.975Z,100084.77
2019-05-26T03:38:07.042Z,100083.65
2019-05-26T03:40:35.230Z,100082.69
2019-05-26T03:43:04.601Z,100082.43
2019-05-26T03:46:22.484Z,100084.64
2019-05-26T03:48:52.355Z,100084.64
2019-05-26T03:51:22.002Z,100087.52
2019-05-26T03:53:50.094Z,100082.80
2019-05-26T03:56:19.611Z,100081.32
2019-05-26T03:58:48.930Z,100079.66
2019-05-26T04:01:17.019Z,100085.27
2019-05-26T04:03:46.516Z,100087.90
2019-05-26T04:06:14.517Z,100084.42
2019-05-26T04:08:42.583Z,100085.73
2019-05-26T04:11:11.024Z,100084.00
2019-05-26T04:13:39.632Z,100088.45
2019-05-26T04:16:08.907Z,100086.98
2019-05-26T04:18:38.814Z,100089.30
2019-05-26T04:21:06.804Z,100087.17
2019-05-26T04:23:35.222Z,100090.50
2019-05-26T04:26:03.357Z,100083.30
2019-05-26T04:28:33.155Z,100083.11
2019-05-26T04:31:01.181Z,100089.00
2019-05-26T04:33:29.422Z,100089.62
2019-05-26T04:35:57.792Z,100094.53
2019-05-26T04:38:25.904Z,100091.20
2019-05-26T04:40:53.974Z,100091.00
2019-05-26T04:43:23.186Z,100095.45
2019-05-26T04:45:51.305Z,100096.27
2019-05-26T04:48:19.454Z,100098.59
2019-05-26T04:50:47.432Z,100102.38
2019-05-26T04:53:15.854Z,100100.87
2019-05-26T04:55:43.874Z,100101.80
2019-05-26T04:58:12.040Z,100107.21
2019-05-26T05:00:41.683Z,100109.84
2019-05-26T05:03:09.847Z,100107.83
2019-05-26T05:05:37.996Z,100109.45
2019-05-26T05:08:06.097Z,100108.09
2019-05-26T05:10:42.454Z,100108.83
2019-05-26T05:13:06.648Z,100113.86
2019-05-26T05:15:34.659Z,100113.80
2019-05-26T05:18:03.061Z,100109.61
2019-05-26T05:20:32.602Z,100109.33
2019-05-26T05:23:00.682Z,100109.39
2019-05-26T05:25:28.797Z,100109.65
2019-05-26T05:27:56.852Z,100107.77
2019-05-26T05:30:25.096Z,100109.51
2019-05-26T05:32:53.394Z,100118.06
2019-05-26T05:35:21.630Z,100116.16
2019-05-26T05:37:49.847Z,100123.19
2019-05-26T05:40:19.853Z,100121.93
2019-05-26T05:42:47.918Z,100126.95
2019-05-26T05:45:16.539Z,100123.66
2019-05-26T05:47:44.814Z,100119.28
2019-05-26T05:50:13.458Z,100116.99
2019-05-26T05:52:41.616Z,100117.14
2019-05-26T05:55:11.777Z,100124.73
2019-05-26T05:57:39.831Z,100121.11
2019-05-26T06:00:09.150Z,100124.91
2019-05-26T06:02:37.142Z,100125.75
2019-05-26T06:05:06.903Z,100130.25
2019-05-26T06:07:35.010Z,100126.84
2019-05-26T06:10:05.065Z,100129.61
2019-05-26T06:12:34.442Z,100126.42
2019-05-26T06:15:04.843Z,100129.11
2019-05-26T06:17:32.877Z,100124.91
2019-05-26T06:20:00.951Z,100124.23
2019-05-26T06:22:28.999Z,100117.34
2019-05-26T06:24:57.185Z,100116.14
2019-05-26T06:27:25.355Z,100113.30
2019-05-26T06:29:58.855Z,100110.47
2019-05-26T06:32:23.668Z,100121.94
2019-05-26T06:34:51.801Z,100111.89
2019-05-26T06:37:19.816Z,100115.41
2019-05-26T06:39:49.649Z,100111.19
2019-05-26T06:42:17.668Z,100112.06
2019-05-26T06:44:53.618Z,100109.97
2019-05-26T06:47:15.799Z,100107.14
2019-05-26T06:49:44.617Z,100113.70
2019-05-26T06:52:12.658Z,100111.34
2019-05-26T06:54:40.777Z,100110.91
2019-05-26T06:57:08.817Z,100107.30
2019-05-26T06:59:36.878Z,100113.54
2019-05-26T07:02:04.959Z,100111.84
2019-05-26T07:04:34.806Z,100118.05
2019-05-26T07:07:03.506Z,100110.45
2019-05-26T07:09:31.958Z,100108.45
2019-05-26T07:12:00.841Z,100109.84
2019-05-26T07:14:28.905Z,100107.44
2019-05-26T07:16:57.118Z,100111.05
2019-05-26T07:19:25.164Z,100114.55
2019-05-26T07:21:54.426Z,100110.41
2019-05-26T07:24:22.608Z,100108.78
2019-05-26T07:26:51.772Z,100109.61
2019-05-26T07:29:19.816Z,100115.78
2019-05-26T07:31:48.233Z,100101.37
2019-05-26T07:34:17.374Z,100107.42
2019-05-26T07:36:45.509Z,100101.88
2019-05-26T07:39:13.535Z,100107.12
2019-05-26T07:41:41.844Z,100103.78
2019-05-26T07:44:10.230Z,100098.44
2019-05-26T07:46:38.417Z,100102.17
2019-05-26T07:49:06.750Z,100098.20
2019-05-26T07:51:34.805Z,100099.04
2019-05-26T07:54:03.118Z,100096.03
2019-05-26T07:56:34.706Z,100094.09
2019-05-26T07:59:03.178Z,100091.64
2019-05-26T08:01:36.288Z,100095.11
2019-05-26T08:04:03.119Z,100092.91
2019-05-26T08:06:31.210Z,100089.56
2019-05-26T08:08:59.241Z,100094.86
2019-05-26T08:11:27.315Z,100090.19
2019-05-26T08:13:55.316Z,100079.86
2019-05-26T08:16:24.645Z,100088.28
2019-05-26T08:18:52.690Z,100086.82
2019-05-26T08:21:21.249Z,100087.45
2019-05-26T08:23:49.358Z,100083.73
2019-05-26T08:26:17.611Z,100091.00
2019-05-26T08:28:45.704Z,100082.17
2019-05-26T08:31:13.921Z,100083.87
2019-05-26T08:33:42.482Z,100081.80
2019-05-26T08:36:10.526Z,100078.86
2019-05-26T08:38:38.648Z,100075.11
2019-05-26T08:41:06.679Z,100071.33
2019-05-26T08:43:35.201Z,100068.07
2019-05-26T08:46:03.244Z,100066.42
2019-05-26T08:48:31.626Z,100066.14
2019-05-26T08:50:59.639Z,100072.00
2019-05-26T08:53:27.888Z,100068.63
2019-05-26T08:55:55.895Z,100063.07
2019-05-26T08:58:23.998Z,100063.11
2019-05-26T09:00:52.368Z,100061.84
2019-05-26T09:03:20.555Z,100064.28
2019-05-26T09:05:48.563Z,100060.91
2019-05-26T09:08:16.682Z,100056.67
2019-05-26T09:10:44.710Z,100060.67
2019-05-26T09:13:12.828Z,100058.78
2019-05-26T09:15:41.908Z,100050.67
2019-05-26T09:18:10.350Z,100062.77
2019-05-26T09:20:38.347Z,100057.09
2019-05-26T09:23:06.767Z,100050.36
2019-05-26T09:25:34.800Z,100055.81
2019-05-26T09:28:03.247Z,100052.73
2019-05-26T09:30:31.568Z,100048.34
2019-05-26T09:32:59.652Z,100045.45
2019-05-26T09:35:27.648Z,100046.27
2019-05-26T09:37:55.707Z,100047.30
2019-05-26T09:40:23.688Z,100045.45
2019-05-26T09:42:52.141Z,100046.77
2019-05-26T09:45:21.979Z,100038.11
2019-05-26T09:47:50.310Z,100041.16
2019-05-26T09:50:18.877Z,100041.72
2019-05-26T09:52:46.969Z,100038.45
2019-05-26T09:55:15.500Z,100028.22
2019-05-26T09:57:43.972Z,100037.23
2019-05-26T10:00:16.189Z,100040.98
2019-05-26T10:02:44.513Z,100036.98
2019-05-26T10:05:13.940Z,100036.73
2019-05-26T10:07:42.460Z,100025.62
2019-05-26T10:10:11.297Z,100028.81
2019-05-26T10:12:39.647Z,100026.21
2019-05-26T10:15:08.781Z,100028.61
2019-05-26T10:17:37.051Z,100022.16
2019-05-26T10:20:06.435Z,100029.70
2019-05-26T10:22:36.451Z,100023.27
2019-05-26T10:25:06.971Z,100028.71
2019-05-26T10:27:34.971Z,100025.52
2019-05-26T10:30:04.812Z,100026.66
2019-05-26T10:32:32.913Z,100019.33
2019-05-26T10:35:01.046Z,100017.53
2019-05-26T10:37:30.845Z,100016.86
2019-05-26T10:40:00.649Z,100016.16
2019-05-26T10:42:29.018Z,100013.15
2019-05-26T10:44:57.603Z,100011.11
2019-05-26T10:47:27.278Z,100007.40
2019-05-26T10:49:55.615Z,100001.45
2019-05-26T10:52:23.985Z,100001.50
2019-05-26T10:54:52.105Z,99995.63
2019-05-26T10:57:20.233Z,99997.03
2019-05-26T10:59:48.330Z,99987.22
2019-05-26T11:02:16.445Z,99987.55
2019-05-26T11:04:44.582Z,99985.36
2019-05-26T11:07:13.022Z,99981.06
2019-05-26T11:09:41.493Z,99991.03
2019-05-26T11:12:09.662Z,99983.67
2019-05-26T11:14:38.036Z,99982.08
2019-05-26T11:17:07.156Z,99981.36
2019-05-26T11:19:35.680Z,99981.02
2019-05-26T11:22:06.576Z,99975.64
2019-05-26T11:24:36.232Z,99969.31
2019-05-26T11:27:09.928Z,99964.61
2019-05-26T11:29:34.563Z,99957.95
2019-05-26T11:32:04.072Z,99960.89
2019-05-26T11:34:33.281Z,99957.50
2019-05-26T11:37:01.304Z,99952.84
2019-05-26T11:39:29.511Z,99948.48
2019-05-26T11:42:10.555Z,99949.84
2019-05-26T11:44:28.683Z,99945.66
2019-05-26T11:46:56.793Z,99950.46
2019-05-26T11:49:25.000Z,99949.66
2019-05-26T11:51:54.160Z,99948.88
2019-05-26T11:54:22.225Z,99942.81
2019-05-26T11:56:50.733Z,99938.91
2019-05-26T11:59:20.384Z,99941.02
2019-05-26T12:01:48.874Z,99940.22
2019-05-26T12:04:16.990Z,99933.58
2019-05-26T12:06:45.101Z,99930.76
2019-05-26T12:09:13.339Z,99926.16
2019-05-26T12:11:41.383Z,99927.86
2019-05-26T12:14:09.401Z,99925.60
2019-05-26T12:16:41.491Z,99916.80
2019-05-26T12:19:09.592Z,99919.36
2019-05-26T12:21:38.040Z,99917.30
2019-05-26T12:24:06.035Z,99914.54
2019-05-26T12:26:34.264Z,99904.98
2019-05-26T12:29:02.260Z,99902.63
2019-05-26T12:31:30.356Z,99894.13
2019-05-26T12:33:58.351Z,99892.91
2019-05-26T12:36:28.156Z,99892.31
2019-05-26T12:38:56.389Z,99888.52
2019-05-26T12:41:24.502Z,99887.70
2019-05-26T12:43:52.496Z,99886.51
2019-05-26T12:46:20.933Z,99881.76
2019-05-26T12:48:48.959Z,99873.13
2019-05-26T12:51:17.057Z,99874.36
2019-05-26T12:53:45.165Z,99870.42
2019-05-26T12:56:15.249Z,99869.30
2019-05-26T12:58:43.279Z,99866.02
2019-05-26T13:01:11.364Z,99862.27
2019-05-26T13:03:40.659Z,99864.33
2019-05-26T13:06:08.699Z,99862.95
2019-05-26T13:08:38.304Z,99862.03
2019-05-26T13:11:06.485Z,99866.25
2019-05-26T13:13:34.536Z,99859.09
2019-05-26T13:16:02.680Z,99854.78
2019-05-26T13:18:30.780Z,99856.23
2019-05-26T13:20:58.802Z,99849.77
2019-05-26T13:23:26.948Z,99848.30
2019-05-26T13:25:55.161Z,99848.08
2019-05-26T13:28:23.310Z,99845.02
2019-05-26T13:30:51.952Z,99844.78
2019-05-26T13:33:21.686Z,99840.00
2019-05-26T13:35:49.910Z,99842.38
2019-05-26T13:38:18.097Z,99839.91
2019-05-26T13:40:46.176Z,99841.12
2019-05-26T13:43:14.342Z,99841.98
2019-05-26T13:45:42.460Z,99835.75
2019-05-26T13:48:10.708Z,99829.53
2019-05-26T13:50:38.993Z,99831.77
2019-05-26T13:53:07.162Z,99819.30
2019-05-26T13:55:35.206Z,99823.66
2019-05-26T13:58:03.250Z,99825.70
2019-05-26T14:00:31.298Z,99822.18
2019-05-26T14:02:59.294Z,99819.03
2019-05-26T14:05:27.767Z,99825.95
2019-05-26T14:07:55.735Z,99821.66
2019-05-26T14:10:32.956Z,99828.08
2019-05-26T14:13:01.868Z,99816.16
2019-05-26T14:15:37.996Z,99819.86
2019-05-26T14:18:01.110Z,99817.80
2019-05-26T14:20:35.305Z,99814.53
2019-05-26T14:23:06.256Z,99814.42
2019-05-26T14:25:43.161Z,99811.69
2019-05-26T14:28:11.270Z,99818.68
2019-05-26T14:30:39.642Z,99806.96
2019-05-26T14:33:07.900Z,99807.44
2019-05-26T14:35:36.198Z,99801.25
2019-05-26T14:38:04.436Z,99795.36
2019-05-26T14:40:32.626Z,99785.41
2019-05-26T14:43:00.704Z,99790.73
2019-05-26T14:45:28.935Z,99794.89
2019-05-26T14:47:57.529Z,99803.08
2019-05-26T14:50:25.857Z,99789.20
2019-05-26T14:52:53.895Z,99789.10
2019-05-26T14:55:22.212Z,99782.81
2019-05-26T14:57:50.257Z,99792.94
2019-05-26T15:00:19.966Z,99790.64
2019-05-26T15:02:48.024Z,99785.31
2019-05-26T15:05:16.652Z,99778.16
2019-05-26T15:07:44.646Z,99784.80
2019-05-26T15:10:13.233Z,99781.69
2019-05-26T15:12:41.217Z,99777.67
2019-05-26T15:15:11.010Z,99779.66
2019-05-26T15:17:39.040Z,99770.38
2019-05-26T15:20:08.914Z,99772.16
2019-05-26T15:22:38.514Z,99771.89
2019-05-26T15:25:07.595Z,99772.63
2019-05-26T15:27:35.975Z,99767.23
2019-05-26T15:30:06.117Z,99768.20
2019-05-26T15:32:34.151Z,99769.20
2019-05-26T15:35:02.468Z,99763.54
2019-05-26T15:37:30.577Z,99769.38
2019-05-26T15:39:58.671Z,99768.47
2019-05-26T15:42:26.808Z,99765.72
2019-05-26T15:44:55.044Z,99767.42
2019-05-26T15:47:23.050Z,99763.86
2019-05-26T15:49:51.361Z,99765.37
2019-05-26T15:52:19.543Z,99757.64
2019-05-26T15:54:47.731Z,99755.55
2019-05-26T15:57:15.760Z,99756.19
2019-05-26T15:59:43.856Z,99749.28
2019-05-26T16:02:11.879Z,99749.17
2019-05-26T16:04:44.977Z,99743.91
2019-05-26T16:07:12.195Z,99735.40
2019-05-26T16:09:40.409Z,99730.94
2019-05-26T16:12:08.454Z,99734.81
2019-05-26T16:14:38.448Z,99733.80
2019-05-26T16:17:07.693Z,99726.41
2019-05-26T16:19:35.856Z,99728.18
2019-05-26T16:22:03.931Z,99727.52
2019-05-26T16:24:32.455Z,99730.08
2019-05-26T16:27:17.855Z,99729.89
2019-05-26T16:29:30.764Z,99723.52
2019-05-26T16:31:59.064Z,99721.95
2019-05-26T16:34:27.199Z,99724.16
2019-05-26T16:36:55.315Z,99722.61
2019-05-26T16:39:36.112Z,99720.23
2019-05-26T16:41:53.398Z,99728.09
2019-05-26T16:44:21.380Z,99727.61
2019-05-26T16:46:56.534Z,99731.45
2019-05-26T16:49:21.107Z,99718.89
2019-05-26T16:51:49.218Z,99728.91
2019-05-26T16:54:18.553Z,99725.50
2019-05-26T16:56:46.610Z,99720.97
2019-05-26T16:59:14.896Z,99718.12
2019-05-26T17:01:43.038Z,99713.05
2019-05-26T17:04:11.049Z,99716.04
2019-05-26T17:06:40.764Z,99711.76
2019-05-26T17:09:10.251Z,99705.91
2019-05-26T17:11:38.456Z,99716.17
2019-05-26T17:14:06.523Z,99705.75
2019-05-26T17:16:36.204Z,99713.86
2019-05-26T17:19:04.286Z,99710.45
2019-05-26T17:21:32.456Z,99705.11
2019-05-26T17:24:00.614Z,99692.84
2019-05-26T17:26:28.974Z,99694.73
2019-05-26T17:28:57.538Z,99693.68
2019-05-26T17:31:26.915Z,99691.54
2019-05-26T17:33:55.195Z,99686.20
2019-05-26T17:36:23.395Z,99690.30
2019-05-26T17:38:51.511Z,99688.99
2019-05-26T17:41:20.041Z,99698.43
2019-05-26T17:43:48.054Z,99694.44
2019-05-26T17:46:16.603Z,99695.84
2019-05-26T17:48:45.095Z,99696.67
2019-05-26T17:51:13.257Z,99694.02
2019-05-26T17:53:41.454Z,99691.10
2019-05-26T17:56:10.015Z,99693.55
2019-05-26T17:58:39.039Z,99689.84
2019-05-26T18:01:07.171Z,99690.66
2019-05-26T18:03:35.531Z,99683.46
2019-05-26T18:06:03.949Z,99695.56
2019-05-26T18:08:35.914Z,99685.67
2019-05-26T18:11:02.229Z,99688.14
2019-05-26T18:13:30.337Z,99682.25
2019-05-26T18:15:59.453Z,99678.27
2019-05-26T18:18:28.906Z,99682.05
2019-05-26T18:20:57.055Z,99671.88
2019-05-26T18:23:25.085Z,99678.86
2019-05-26T18:25:53.332Z,99676.23
2019-05-26T18:28:21.685Z,99681.56
2019-05-26T18:30:50.026Z,99678.66
2019-05-26T18:33:18.199Z,99673.05
2019-05-26T18:35:46.360Z,99677.62
2019-05-26T18:38:14.584Z,99675.74
2019-05-26T18:40:42.640Z,99673.06
2019-05-26T18:43:10.850Z,99671.50
2019-05-26T18:45:38.887Z,99676.06
2019-05-26T18:48:07.149Z,99666.43
2019-05-26T18:50:35.334Z,99676.61
2019-05-26T18:53:03.612Z,99678.48
2019-05-26T18:55:31.985Z,99673.16
2019-05-26T18:58:00.481Z,99670.97
2019-05-26T19:00:30.883Z,99668.84
2019-05-26T19:02:59.061Z,99674.20
2019-05-26T19:05:33.767Z,99666.98
2019-05-26T19:07:57.283Z,99671.53
2019-05-26T19:10:25.433Z,99671.77
2019-05-26T19:12:53.982Z,99670.16
2019-05-26T19:15:22.042Z,99680.06
2019-05-26T19:17:51.353Z,99678.17
2019-05-26T19:20:19.755Z,99683.76
2019-05-26T19:22:48.027Z,99678.93
2019-05-26T19:25:16.312Z,99685.06
2019-05-26T19:27:44.540Z,99686.65
2019-05-26T19:30:13.065Z,99678.88
2019-05-26T19:32:41.666Z,99674.54
2019-05-26T19:35:11.616Z,99676.92
2019-05-26T19:37:40.010Z,99678.23
2019-05-26T19:40:09.173Z,99686.22
2019-05-26T19:42:39.744Z,99690.44
2019-05-26T19:45:08.145Z,99685.59
2019-05-26T19:47:36.337Z,99685.28
2019-05-26T19:50:05.144Z,99689.25
2019-05-26T19:52:33.452Z,99692.15
2019-05-26T19:55:01.862Z,99688.33
2019-05-26T19:57:30.378Z,99685.61
2019-05-26T19:59:58.441Z,99690.10
2019-05-26T20:02:26.707Z,99690.32
2019-05-26T20:04:55.857Z,99694.81
2019-05-26T20:07:23.962Z,99697.66
2019-05-26T20:09:51.986Z,99693.05
2019-05-26T20:12:20.515Z,99692.73
2019-05-26T20:14:48.966Z,99695.87
2019-05-26T20:17:17.163Z,99691.50
2019-05-26T20:19:45.292Z,99688.22
2019-05-26T20:22:13.830Z,99696.97
2019-05-26T20:24:42.308Z,99689.97
2019-05-26T20:27:10.632Z,99699.81
2019-05-26T20:29:39.017Z,99692.02
2019-05-26T20:32:08.294Z,99702.94
2019-05-26T20:34:36.652Z,99700.20
2019-05-26T20:37:04.878Z,99695.84
2019-05-26T20:39:32.931Z,99699.22
2019-05-26T20:42:01.367Z,99698.08
2019-05-26T20:44:29.557Z,99693.46
2019-05-26T20:46:57.620Z,99697.63
2019-05-26T20:49:25.746Z,99700.47
2019-05-26T20:51:54.868Z,99693.72
2019-05-26T20:54:23.034Z,99690.98
2019-05-26T20:56:51.203Z,99694.63
2019-05-26T20:59:19.778Z,99698.80
2019-05-26T21:01:47.828Z,99699.13
2019-05-26T21:04:23.079Z,99695.84
2019-05-26T21:06:52.332Z,99693.59
2019-05-26T21:09:20.730Z,99697.23
2019-05-26T21:11:49.170Z,99693.37
2019-05-26T21:14:17.291Z,99695.02
2019-05-26T21:16:45.424Z,99694.84
2019-05-26T21:19:14.065Z,99695.67
2019-05-26T21:21:42.163Z,99693.81
2019-05-26T21:24:11.172Z,99693.02
2019-05-26T21:26:40.837Z,99691.52
2019-05-26T21:29:09.535Z,99686.81
2019-05-26T21:31:37.628Z,99689.56
2019-05-26T21:34:07.821Z,99688.55
2019-05-26T21:36:35.921Z,99688.92
2019-05-26T21:39:07.372Z,99690.34
2019-05-26T21:41:35.828Z,99686.20
2019-05-26T21:44:04.563Z,99693.23
2019-05-26T21:46:32.569Z,99693.67
2019-05-26T21:49:00.763Z,99693.88
2019-05-26T21:51:30.044Z,99689.82
2019-05-26T21:53:58.106Z,99696.70
2019-05-26T21:56:26.318Z,99688.09
2019-05-26T21:58:54.522Z,99685.16
2019-05-26T22:01:22.673Z,99686.67
2019-05-26T22:03:51.978Z,99683.14
2019-05-26T22:06:20.366Z,99682.45
2019-05-26T22:08:48.564Z,99688.52
2019-05-26T22:11:17.042Z,99686.91
2019-05-26T22:13:45.375Z,99679.92
2019-05-26T22:16:14.180Z,99683.78
2019-05-26T22:18:42.596Z,99685.30
2019-05-26T22:21:10.818Z,99676.45
2019-05-26T22:23:38.944Z,99683.56
2019-05-26T22:26:07.077Z,99683.20
2019-05-26T22:28:35.334Z,99677.44
2019-05-26T22:31:03.872Z,99675.25
2019-05-26T22:33:33.680Z,99679.16
2019-05-26T22:36:01.826Z,99676.45
2019-05-26T22:38:29.954Z,99675.56
2019-05-26T22:40:58.109Z,99678.41
2019-05-26T22:43:26.370Z,99676.11
2019-05-26T22:45:54.699Z,99680.33
2019-05-26T22:48:22.965Z,99668.31
2019-05-26T22:50:51.186Z,99671.95
2019-05-26T22:53:19.159Z,99667.32
2019-05-26T22:55:47.329Z,99670.45
2019-05-26T22:58:15.322Z,99661.88
2019-05-26T23:00:44.835Z,99665.00
2019-05-26T23:03:12.825Z,99663.55
2019-05-26T23:05:41.161Z,99659.75
2019-05-26T23:08:09.458Z,99659.67
2019-05-26T23:10:37.608Z,99654.02
2019-05-26T23:13:05.901Z,99650.72
2019-05-26T23:15:35.170Z,99644.76
2019-05-26T23:18:03.243Z,99644.70
2019-05-26T23:20:31.250Z,99646.55
2019-05-26T23:22:59.362Z,99649.43
2019-05-26T23:25:27.793Z,99647.82
2019-05-26T23:27:55.938Z,99649.87
2019-05-26T23:30:24.131Z,99650.39
2019-05-26T23:32:52.360Z,99650.91
2019-05-26T23:35:20.500Z,99653.55
2019-05-26T23:37:49.034Z,99655.11
2019-05-26T23:40:17.023Z,99658.05
2019-05-26T23:42:45.260Z,99653.03
2019-05-26T23:45:13.382Z,99654.08
2019-05-26T23:47:41.936Z,99660.41
2019-05-26T23:50:10.130Z,99661.73
2019-05-26T23:52:38.853Z,99663.06
2019-05-26T23:55:07.250Z,99669.69
2019-05-26T23:57:35.504Z,99671.77
